createdAt,value
2023-02-15T00:01:55.972Z,103070.28
2023-02-15T00:04:27.549Z,103092.94
2023-02-15T00:06:54.336Z,103044.13
2023-02-15T00:09:22.800Z,102855.31
2023-02-15T00:11:50.843Z,103010.13
2023-02-15T00:14:23.968Z,103079.84
2023-02-15T00:16:52.837Z,102971.44
2023-02-15T00:19:22.429Z,102973.31
2023-02-15T00:21:50.104Z,102926.56
2023-02-15T00:24:20.411Z,102935.53
2023-02-15T00:26:51.226Z,102883.38
2023-02-15T00:29:21.283Z,102808.00
2023-02-15T00:31:48.525Z,103047.13
2023-02-15T00:34:21.489Z,102859.28
2023-02-15T00:36:48.350Z,103044.44
2023-02-15T00:39:16.819Z,102838.53
2023-02-15T00:41:44.400Z,103059.81
2023-02-15T00:44:14.028Z,102837.94
2023-02-15T00:46:42.867Z,103053.56
2023-02-15T00:49:12.687Z,102920.91
2023-02-15T00:51:40.251Z,102936.00
2023-02-15T00:54:10.012Z,103003.28
2023-02-15T00:56:37.046Z,102984.25
2023-02-15T00:59:11.799Z,103026.72
2023-02-15T01:01:38.720Z,102836.09
2023-02-15T01:04:07.015Z,102817.69
2023-02-15T01:06:34.137Z,102984.84
2023-02-15T01:09:01.224Z,102956.25
2023-02-15T01:11:28.079Z,102984.38
2023-02-15T01:13:57.505Z,103034.28
2023-02-15T01:16:25.829Z,103033.25
2023-02-15T01:18:53.021Z,102851.66
2023-02-15T01:21:24.053Z,103003.66
2023-02-15T01:23:50.993Z,102975.75
2023-02-15T01:26:19.582Z,103021.75
2023-02-15T01:28:47.129Z,102954.31
2023-02-15T01:31:16.188Z,103016.88
2023-02-15T01:33:43.227Z,102979.41
2023-02-15T01:36:10.328Z,102958.53
2023-02-15T01:38:38.497Z,102960.97
2023-02-15T01:41:05.287Z,103015.28
2023-02-15T01:43:41.440Z,102986.16
2023-02-15T01:46:10.054Z,102996.56
2023-02-15T01:48:41.858Z,102997.91
2023-02-15T01:51:10.116Z,102939.16
2023-02-15T01:53:43.737Z,102980.97
2023-02-15T01:56:14.617Z,102998.41
2023-02-15T01:58:43.071Z,102999.38
2023-02-15T02:01:10.103Z,102992.69
2023-02-15T02:03:44.243Z,102983.50
2023-02-15T02:06:11.037Z,102865.56
2023-02-15T02:08:39.239Z,102975.13
2023-02-15T02:11:11.633Z,102935.50
2023-02-15T02:13:39.048Z,102925.47
2023-02-15T02:16:12.653Z,102979.00
2023-02-15T02:18:53.836Z,102969.78
2023-02-15T02:22:03.600Z,102879.63
2023-02-15T02:24:57.477Z,102910.75
2023-02-15T02:27:48.001Z,102821.97
2023-02-15T02:30:56.273Z,102891.91
2023-02-15T02:33:52.478Z,102912.41
2023-02-15T02:36:26.569Z,102953.63
2023-02-15T02:39:07.414Z,102945.13
2023-02-15T02:41:46.808Z,102847.97
2023-02-15T02:44:24.464Z,102742.03
2023-02-15T02:46:55.693Z,102720.06
2023-02-15T02:49:39.908Z,102870.44
2023-02-15T02:52:08.497Z,102726.69
2023-02-15T02:54:39.679Z,102934.31
2023-02-15T02:57:08.815Z,102931.75
2023-02-15T02:59:42.899Z,102801.97
2023-02-15T03:02:14.714Z,102896.47
2023-02-15T03:04:48.814Z,102831.53
2023-02-15T03:07:22.168Z,102885.91
2023-02-15T03:09:53.249Z,102922.31
2023-02-15T03:12:28.187Z,102790.44
2023-02-15T03:15:01.597Z,102926.25
2023-02-15T03:17:32.634Z,102752.66
2023-02-15T03:20:13.473Z,102924.22
2023-02-15T03:22:46.488Z,102919.88
2023-02-15T03:25:19.476Z,102862.09
2023-02-15T03:27:50.172Z,102698.19
2023-02-15T03:30:22.312Z,102805.91
2023-02-15T03:32:53.710Z,102902.31
2023-02-15T03:35:27.627Z,102878.69
2023-02-15T03:38:00.280Z,102908.41
2023-02-15T03:40:32.610Z,102873.81
2023-02-15T03:43:04.427Z,102909.53
2023-02-15T03:45:34.553Z,102831.38
2023-02-15T03:48:02.905Z,102901.09
2023-02-15T03:50:34.588Z,102767.09
2023-02-15T03:53:04.929Z,102679.06
2023-02-15T03:55:34.184Z,102904.91
2023-02-15T03:58:01.350Z,102896.06
2023-02-15T04:00:28.775Z,102708.09
2023-02-15T04:03:24.410Z,102733.00
2023-02-15T04:05:53.214Z,102761.19
2023-02-15T04:08:20.253Z,102722.59
2023-02-15T04:10:46.949Z,102730.28
2023-02-15T04:13:13.803Z,102758.84
2023-02-15T04:15:44.038Z,102815.38
2023-02-15T04:18:12.049Z,102764.31
2023-02-15T04:20:39.377Z,102878.81
2023-02-15T04:23:12.127Z,102895.09
2023-02-15T04:25:40.006Z,102690.84
2023-02-15T04:28:07.342Z,102718.84
2023-02-15T04:30:40.465Z,102729.06
2023-02-15T04:33:12.929Z,102660.53
2023-02-15T04:35:40.111Z,102707.78
2023-02-15T04:38:08.682Z,102770.97
2023-02-15T04:40:36.004Z,102752.38
2023-02-15T04:43:04.969Z,102857.91
2023-02-15T04:45:31.762Z,102810.25
2023-02-15T04:48:01.084Z,102754.78
2023-02-15T04:50:27.783Z,102843.09
2023-02-15T04:52:55.015Z,102852.81
2023-02-15T04:55:23.183Z,102831.09
2023-02-15T04:57:53.037Z,102818.78
2023-02-15T05:00:20.509Z,102852.81
2023-02-15T05:02:47.259Z,102832.47
2023-02-15T05:05:14.293Z,102850.00
2023-02-15T05:07:41.702Z,102788.06
2023-02-15T05:10:10.748Z,102834.03
2023-02-15T05:12:39.389Z,102788.06
2023-02-15T05:15:07.020Z,102712.94
2023-02-15T05:17:33.794Z,102703.41
2023-02-15T05:20:01.354Z,102789.38
2023-02-15T05:22:31.400Z,102611.59
2023-02-15T05:24:59.337Z,102560.59
2023-02-15T05:27:28.575Z,102827.88
2023-02-15T05:29:57.519Z,102729.28
2023-02-15T05:32:24.848Z,102834.34
2023-02-15T05:34:52.271Z,102840.66
2023-02-15T05:37:22.483Z,102717.59
2023-02-15T05:39:49.558Z,102809.88
2023-02-15T05:42:53.595Z,102763.22
2023-02-15T05:45:29.504Z,102589.47
2023-02-15T05:47:56.286Z,102625.44
2023-02-15T05:50:23.021Z,102691.53
2023-02-15T05:52:52.311Z,102782.75
2023-02-15T05:55:19.996Z,102610.56
2023-02-15T05:57:49.953Z,102821.59
2023-02-15T06:00:18.944Z,102759.44
2023-02-15T06:02:48.516Z,102684.28
2023-02-15T06:05:15.440Z,102780.19
2023-02-15T06:07:46.831Z,102813.88
2023-02-15T06:10:14.566Z,102816.09
2023-02-15T06:12:41.239Z,102817.75
2023-02-15T06:15:11.346Z,102795.06
2023-02-15T06:17:38.302Z,102819.13
2023-02-15T06:20:08.643Z,102811.97
2023-02-15T06:22:36.144Z,102757.53
2023-02-15T06:25:03.244Z,102759.56
2023-02-15T06:27:30.896Z,102806.72
2023-02-15T06:29:57.998Z,102774.34
2023-02-15T06:32:24.990Z,102786.38
2023-02-15T06:34:53.250Z,102806.31
2023-02-15T06:37:25.678Z,102729.84
2023-02-15T06:39:52.439Z,102656.75
2023-02-15T06:42:19.717Z,102792.53
2023-02-15T06:44:46.725Z,102787.19
2023-02-15T06:47:13.715Z,102804.97
2023-02-15T06:49:40.592Z,102788.44
2023-02-15T06:52:07.570Z,102730.19
2023-02-15T06:54:35.986Z,102663.03
2023-02-15T06:57:03.045Z,102691.25
2023-02-15T06:59:32.042Z,102797.22
2023-02-15T07:01:59.222Z,102819.03
2023-02-15T07:04:29.476Z,102630.06
2023-02-15T07:06:57.199Z,102799.06
2023-02-15T07:09:26.396Z,102801.59
2023-02-15T07:11:54.708Z,102795.41
2023-02-15T07:14:21.576Z,102794.78
2023-02-15T07:16:48.322Z,102795.09
2023-02-15T07:19:15.345Z,102738.38
2023-02-15T07:21:42.175Z,102794.81
2023-02-15T07:24:08.941Z,102790.19
2023-02-15T07:26:36.692Z,102743.63
2023-02-15T07:29:08.272Z,102793.03
2023-02-15T07:31:35.436Z,102785.69
2023-02-15T07:34:02.477Z,102722.31
2023-02-15T07:36:29.830Z,102779.59
2023-02-15T07:38:56.874Z,102775.59
2023-02-15T07:41:24.078Z,102685.47
2023-02-15T07:43:50.965Z,102773.78
2023-02-15T07:46:19.739Z,102769.78
2023-02-15T07:48:48.634Z,102648.34
2023-02-15T07:51:18.632Z,102688.88
2023-02-15T07:53:47.715Z,102728.94
2023-02-15T07:56:16.664Z,102663.22
2023-02-15T07:58:44.552Z,102651.38
2023-02-15T08:01:11.449Z,102788.50
2023-02-15T08:03:40.289Z,102623.25
2023-02-15T08:06:07.803Z,102755.69
2023-02-15T08:08:35.753Z,102646.94
2023-02-15T08:11:04.575Z,102761.53
2023-02-15T08:13:31.348Z,102583.31
2023-02-15T08:15:58.166Z,102625.50
2023-02-15T08:18:25.167Z,102573.97
2023-02-15T08:20:53.358Z,102727.69
2023-02-15T08:23:20.538Z,102668.34
2023-02-15T08:25:47.804Z,102527.53
2023-02-15T08:28:15.080Z,102754.66
2023-02-15T08:30:41.938Z,102708.66
2023-02-15T08:33:08.733Z,102702.47
2023-02-15T08:35:35.667Z,102738.63
2023-02-15T08:38:03.951Z,102722.25
2023-02-15T08:40:30.722Z,102610.63
2023-02-15T08:42:57.709Z,102728.72
2023-02-15T08:45:24.642Z,102700.34
2023-02-15T08:47:51.688Z,102520.38
2023-02-15T08:50:18.986Z,102642.84
2023-02-15T08:52:45.975Z,102689.09
2023-02-15T08:55:14.835Z,102716.03
2023-02-15T08:57:48.424Z,102711.00
2023-02-15T09:00:20.221Z,102635.69
2023-02-15T09:02:47.019Z,102515.16
2023-02-15T09:05:17.799Z,102599.06
2023-02-15T09:07:47.891Z,102632.94
2023-02-15T09:10:20.277Z,102677.56
2023-02-15T09:12:47.625Z,102584.88
2023-02-15T09:15:15.067Z,102716.72
2023-02-15T09:17:47.271Z,102713.63
2023-02-15T09:20:20.789Z,102710.44
2023-02-15T09:22:55.053Z,102655.50
2023-02-15T09:25:35.143Z,102633.78
2023-02-15T09:28:02.264Z,102691.78
2023-02-15T09:30:29.400Z,102522.53
2023-02-15T09:32:56.646Z,102676.09
2023-02-15T09:35:23.493Z,102626.78
2023-02-15T09:37:51.218Z,102632.31
2023-02-15T09:40:19.175Z,102545.97
2023-02-15T09:43:08.396Z,102593.63
2023-02-15T09:45:52.450Z,102683.47
2023-02-15T09:48:40.967Z,102670.19
2023-02-15T09:51:37.525Z,102551.34
2023-02-15T09:54:16.559Z,102680.31
2023-02-15T09:56:51.135Z,102683.63
2023-02-15T09:59:30.816Z,102689.50
2023-02-15T10:02:12.205Z,102674.28
2023-02-15T10:04:51.169Z,102685.09
2023-02-15T10:07:33.142Z,102629.59
2023-02-15T10:10:13.475Z,102650.03
2023-02-15T10:13:23.204Z,102680.31
2023-02-15T10:16:17.790Z,102684.03
2023-02-15T10:18:56.885Z,102681.66
2023-02-15T10:21:35.630Z,102678.22
2023-02-15T10:24:48.736Z,102682.84
2023-02-15T10:27:21.082Z,102668.38
2023-02-15T10:29:59.963Z,102665.16
2023-02-15T10:40:11.739Z,102685.09
2023-02-15T10:43:32.512Z,102580.00
2023-02-15T10:50:02.661Z,102483.69
2023-02-15T10:56:29.450Z,102494.75
2023-02-15T11:12:45.790Z,102582.06
2023-02-15T11:24:54.907Z,102543.75
2023-02-15T11:27:25.395Z,102577.47
2023-02-15T11:33:29.576Z,102572.03
2023-02-15T11:36:02.130Z,102616.16
2023-02-15T11:38:38.919Z,102611.06
2023-02-15T11:41:14.766Z,102599.28
2023-02-15T11:43:47.400Z,102560.28
2023-02-15T11:46:17.084Z,102609.00
2023-02-15T11:49:01.694Z,102552.31
2023-02-15T11:51:28.827Z,102562.91
2023-02-15T11:53:57.639Z,102436.00
2023-02-15T11:56:25.915Z,102548.03
2023-02-15T11:59:01.301Z,102578.97
2023-02-15T12:01:32.835Z,102579.84
2023-02-15T12:04:04.184Z,102513.47
2023-02-15T12:06:49.047Z,102570.59
2023-02-15T12:09:31.327Z,102489.63
2023-02-15T12:12:22.430Z,102544.88
2023-02-15T12:14:53.322Z,102395.13
2023-02-15T12:17:25.998Z,102458.69
2023-02-15T12:19:56.165Z,102476.81
2023-02-15T12:22:28.676Z,102387.94
2023-02-15T12:25:00.627Z,102454.25
2023-02-15T12:27:30.271Z,102385.13
2023-02-15T12:30:03.896Z,102521.34
2023-02-15T12:32:37.316Z,102526.53
2023-02-15T12:35:23.091Z,102381.19
2023-02-15T12:38:32.581Z,102396.34
2023-02-15T12:41:04.139Z,102461.47
2023-02-15T12:43:46.614Z,102346.91
2023-02-15T12:46:25.132Z,102327.34
2023-02-15T12:49:10.824Z,102480.19
2023-02-15T12:51:46.064Z,102475.13
2023-02-15T12:54:38.985Z,102461.81
2023-02-15T12:57:32.868Z,102457.50
2023-02-15T13:00:04.605Z,102317.09
2023-02-15T13:02:47.166Z,102347.53
2023-02-15T13:05:24.050Z,102405.78
2023-02-15T13:07:54.427Z,102483.47
2023-02-15T13:10:27.933Z,102442.31
2023-02-15T13:12:57.731Z,102376.91
2023-02-15T13:15:37.925Z,102507.50
2023-02-15T13:18:12.102Z,102393.47
2023-02-15T13:20:45.666Z,102362.75
2023-02-15T13:23:26.538Z,102490.78
2023-02-15T13:25:59.070Z,102334.91
2023-02-15T13:28:39.370Z,102498.66
2023-02-15T13:31:16.109Z,102406.75
2023-02-15T13:33:50.243Z,102336.88
2023-02-15T13:36:24.920Z,102322.91
2023-02-15T13:39:15.474Z,102462.84
2023-02-15T13:41:55.444Z,102384.94
2023-02-15T13:44:42.844Z,102298.41
2023-02-15T13:47:42.805Z,102441.16
2023-02-15T13:50:36.206Z,102439.50
2023-02-15T13:53:25.957Z,102309.84
2023-02-15T13:56:07.960Z,102474.94
2023-02-15T13:59:04.949Z,102334.44
2023-02-15T14:01:46.904Z,102305.03
2023-02-15T14:04:41.956Z,102359.25
2023-02-15T14:07:32.273Z,102484.97
2023-02-15T14:10:11.780Z,102477.22
2023-02-15T14:12:53.311Z,102296.69
2023-02-15T14:15:27.363Z,102463.06
2023-02-15T14:18:05.374Z,102374.69
2023-02-15T14:20:46.110Z,102471.47
2023-02-15T14:23:22.532Z,102300.34
2023-02-15T14:25:56.034Z,102398.72
2023-02-15T14:28:30.068Z,102444.03
2023-02-15T14:30:57.785Z,102306.34
2023-02-15T14:33:40.193Z,102451.34
2023-02-15T14:36:17.471Z,102301.19
2023-02-15T14:38:56.407Z,102278.56
2023-02-15T14:41:33.211Z,102368.47
2023-02-15T14:44:10.240Z,102361.88
2023-02-15T14:46:49.303Z,102405.09
2023-02-15T14:49:27.779Z,102392.22
2023-02-15T14:51:59.804Z,102309.16
2023-02-15T14:54:55.273Z,102432.56
2023-02-15T14:57:25.128Z,102412.56
2023-02-15T14:59:58.162Z,102433.94
2023-02-15T15:02:29.183Z,102432.16
2023-02-15T15:05:03.512Z,102431.72
2023-02-15T15:07:38.663Z,102424.88
2023-02-15T15:10:28.376Z,102354.88
2023-02-15T15:12:57.994Z,102399.94
2023-02-15T15:15:35.349Z,102426.25
2023-02-15T15:18:05.215Z,102376.41
2023-02-15T15:20:46.635Z,102408.81
2023-02-15T15:23:44.750Z,102424.97
2023-02-15T15:26:31.378Z,102421.69
2023-02-15T15:29:02.858Z,102385.88
2023-02-15T15:31:46.106Z,102408.50
2023-02-15T15:34:44.793Z,102420.63
2023-02-15T15:37:44.010Z,102404.00
2023-02-15T15:40:49.566Z,102408.72
2023-02-15T15:43:38.072Z,102388.81
2023-02-15T15:46:24.739Z,102405.28
2023-02-15T15:48:53.296Z,102410.84
2023-02-15T15:51:24.410Z,102411.78
2023-02-15T15:53:52.546Z,102317.25
2023-02-15T15:56:25.526Z,102327.84
2023-02-15T15:58:55.069Z,102396.81
2023-02-15T16:01:27.806Z,102389.50
2023-02-15T16:03:56.975Z,102274.47
2023-02-15T16:06:35.665Z,102395.47
2023-02-15T16:09:17.609Z,102390.38
2023-02-15T16:16:14.068Z,102197.47
2023-02-15T16:19:16.345Z,102392.75
2023-02-15T16:21:49.589Z,102213.88
2023-02-15T16:24:33.792Z,102273.41
2023-02-15T16:27:23.948Z,102392.69
2023-02-15T16:29:56.059Z,102344.19
2023-02-15T16:32:26.564Z,102213.50
2023-02-15T16:34:59.180Z,102288.53
2023-02-15T16:37:32.536Z,102314.28
2023-02-15T16:39:59.795Z,102369.50
2023-02-15T16:42:27.154Z,102299.44
2023-02-15T16:44:58.468Z,102375.22
2023-02-15T16:47:38.349Z,102391.84
2023-02-15T16:50:18.502Z,102208.22
2023-02-15T16:52:46.873Z,102378.31
2023-02-15T16:55:23.003Z,102238.44
2023-02-15T16:57:50.620Z,102393.50
2023-02-15T17:00:27.682Z,102400.38
2023-02-15T17:03:27.784Z,102203.94
2023-02-15T17:06:27.773Z,102295.00
2023-02-15T17:09:04.491Z,102221.34
2023-02-15T17:11:36.733Z,102237.69
2023-02-15T17:14:20.467Z,102394.53
2023-02-15T17:16:53.326Z,102352.63
2023-02-15T17:19:25.496Z,102258.28
2023-02-15T17:21:55.406Z,102419.16
2023-02-15T17:24:38.554Z,102323.53
2023-02-15T17:27:16.263Z,102272.19
2023-02-15T17:30:01.084Z,102325.31
2023-02-15T17:32:30.930Z,102418.28
2023-02-15T17:35:21.878Z,102344.75
2023-02-15T17:37:52.014Z,102322.28
2023-02-15T17:40:25.588Z,102377.63
2023-02-15T17:42:54.031Z,102267.13
2023-02-15T17:45:28.163Z,102439.06
2023-02-15T17:47:55.807Z,102433.22
2023-02-15T17:50:26.675Z,102431.25
2023-02-15T17:52:57.219Z,102310.75
2023-02-15T17:55:25.025Z,102406.44
2023-02-15T17:57:52.106Z,102439.53
2023-02-15T18:00:19.360Z,102415.34
2023-02-15T18:02:48.422Z,102447.41
2023-02-15T18:05:16.681Z,102456.94
2023-02-15T18:07:49.890Z,102452.41
2023-02-15T18:10:18.863Z,102354.03
2023-02-15T18:12:47.279Z,102443.72
2023-02-15T18:15:14.836Z,102363.09
2023-02-15T18:17:46.975Z,102276.28
2023-02-15T18:20:19.604Z,102444.97
2023-02-15T18:22:48.031Z,102449.13
2023-02-15T18:25:17.626Z,102387.28
2023-02-15T18:27:44.527Z,102257.50
2023-02-15T18:30:15.741Z,102313.94
2023-02-15T18:32:43.412Z,102354.47
2023-02-15T18:35:15.048Z,102446.25
2023-02-15T18:37:41.967Z,102418.94
2023-02-15T18:40:15.443Z,102442.53
2023-02-15T18:42:43.489Z,102436.75
2023-02-15T18:45:15.848Z,102445.84
2023-02-15T18:47:42.847Z,102447.09
2023-02-15T18:50:09.854Z,102439.25
2023-02-15T18:52:38.596Z,102425.38
2023-02-15T18:55:18.048Z,102426.63
2023-02-15T18:57:45.485Z,102404.91
2023-02-15T19:00:16.119Z,102444.63
2023-02-15T19:02:43.416Z,102433.06
2023-02-15T19:05:10.580Z,102350.72
2023-02-15T19:07:38.347Z,102430.75
2023-02-15T19:10:08.463Z,102391.69
2023-02-15T19:12:36.548Z,102383.63
2023-02-15T19:15:03.489Z,102317.66
2023-02-15T19:17:30.294Z,102420.19
2023-02-15T19:19:57.359Z,102422.06
2023-02-15T19:22:27.120Z,102354.66
2023-02-15T19:24:56.000Z,102349.06
2023-02-15T19:27:26.487Z,102419.38
2023-02-15T19:29:57.266Z,102425.78
2023-02-15T19:32:24.298Z,102410.69
2023-02-15T19:34:51.730Z,102289.72
2023-02-15T19:37:24.651Z,102412.31
2023-02-15T19:39:52.182Z,102404.91
2023-02-15T19:42:22.160Z,102296.78
2023-02-15T19:44:48.991Z,102406.56
2023-02-15T19:47:18.078Z,102231.03
2023-02-15T19:49:46.200Z,102365.59
2023-02-15T19:52:17.582Z,102311.03
2023-02-15T19:54:46.198Z,102405.09
2023-02-15T19:57:14.939Z,102238.69
2023-02-15T19:59:42.221Z,102298.81
2023-02-15T20:02:13.767Z,102269.88
2023-02-15T20:04:42.421Z,102304.41
2023-02-15T20:07:18.092Z,102405.09
2023-02-15T20:09:46.227Z,102280.00
2023-02-15T20:12:21.243Z,102384.84
2023-02-15T20:14:48.305Z,102374.88
2023-02-15T20:17:20.198Z,102379.66
2023-02-15T20:19:48.917Z,102374.28
2023-02-15T20:22:24.992Z,102309.78
2023-02-15T20:24:53.417Z,102283.13
2023-02-15T20:27:20.407Z,102282.09
2023-02-15T20:29:49.176Z,102258.94
2023-02-15T20:32:16.345Z,102228.16
2023-02-15T20:34:43.241Z,102383.16
2023-02-15T20:37:24.056Z,102377.16
2023-02-15T20:39:52.351Z,102378.41
2023-02-15T20:42:19.798Z,102375.94
2023-02-15T20:44:46.739Z,102370.56
2023-02-15T20:47:14.384Z,102376.34
2023-02-15T20:49:41.318Z,102264.72
2023-02-15T20:52:22.712Z,102258.50
2023-02-15T20:54:52.528Z,102366.66
2023-02-15T20:57:30.222Z,102184.53
2023-02-15T20:59:57.175Z,102307.31
2023-02-15T21:02:26.085Z,102329.00
2023-02-15T21:05:19.872Z,102224.41
2023-02-15T21:07:54.253Z,102285.16
2023-02-15T21:11:03.691Z,102157.44
2023-02-15T21:13:50.602Z,102248.19
2023-02-15T21:16:24.344Z,102295.28
2023-02-15T21:18:57.359Z,102244.88
2023-02-15T21:21:53.921Z,102232.47
2023-02-15T21:27:35.783Z,102365.81
2023-02-15T21:30:07.137Z,102343.69
2023-02-15T21:32:34.753Z,102367.06
2023-02-15T21:35:03.274Z,102374.69
2023-02-15T21:37:36.242Z,102368.91
2023-02-15T21:40:16.788Z,102364.97
2023-02-15T21:42:45.376Z,102366.66
2023-02-15T21:45:17.417Z,102367.66
2023-02-15T21:47:45.427Z,102383.16
2023-02-15T21:50:15.393Z,102374.69
2023-02-15T21:52:43.355Z,102378.41
2023-02-15T21:55:14.535Z,102368.47
2023-02-15T21:57:42.650Z,102372.63
2023-02-15T22:00:14.772Z,102356.06
2023-02-15T22:02:43.323Z,102368.25
2023-02-15T22:05:13.945Z,102375.91
2023-02-15T22:07:40.631Z,102379.84
2023-02-15T22:10:07.940Z,102377.16
2023-02-15T22:12:36.674Z,102370.50
2023-02-15T22:15:04.732Z,102363.06
2023-02-15T22:17:31.962Z,102373.44
2023-02-15T22:19:58.808Z,102350.44
2023-02-15T22:22:26.857Z,102372.97
2023-02-15T22:24:53.625Z,102358.91
2023-02-15T22:27:22.806Z,102371.97
2023-02-15T22:29:54.730Z,102366.78
2023-02-15T22:32:24.319Z,102364.28
2023-02-15T22:34:52.522Z,102365.13
2023-02-15T22:37:19.669Z,102337.63
2023-02-15T22:39:46.828Z,102361.38
2023-02-15T22:42:22.647Z,102322.50
2023-02-15T22:44:49.366Z,102370.47
2023-02-15T22:47:21.206Z,102360.97
2023-02-15T22:49:48.016Z,102346.09
2023-02-15T22:52:15.801Z,102341.28
2023-02-15T22:54:43.908Z,102360.53
2023-02-15T22:57:18.337Z,102358.88
2023-02-15T22:59:48.322Z,102363.84
2023-02-15T23:02:15.612Z,102358.88
2023-02-15T23:04:43.834Z,102354.75
2023-02-15T23:07:14.336Z,102334.25
2023-02-15T23:09:41.354Z,102224.78
2023-02-15T23:12:25.459Z,102290.09
2023-02-15T23:14:54.435Z,102370.00
2023-02-15T23:17:21.898Z,102184.66
2023-02-15T23:19:50.496Z,102351.41
2023-02-15T23:22:21.472Z,102348.28
2023-02-15T23:24:52.634Z,102271.09
2023-02-15T23:27:19.371Z,102356.13
2023-02-15T23:29:46.295Z,102265.88
2023-02-15T23:32:15.347Z,102356.31
2023-02-15T23:34:43.101Z,102345.53
2023-02-15T23:37:13.081Z,102363.13
2023-02-15T23:39:40.176Z,102360.00
2023-02-15T23:42:13.564Z,102362.88
2023-02-15T23:44:42.179Z,102266.84
2023-02-15T23:47:21.704Z,102361.19
2023-02-15T23:49:48.767Z,102345.25
2023-02-15T23:52:16.905Z,102361.38
2023-02-15T23:54:43.657Z,102359.72
2023-02-15T23:57:14.205Z,102357.63
2023-02-15T23:59:43.717Z,102364.44
